Time;durP1;ratioP1;P1;durP2;ratioP2;P2;SDS_P1;SDS_P2;PMS_P1;PMS_P2;Temp;Humidity;BMP_temperature;BMP_pressure;BME280_temperature;BME280_humidity;BME280_pressure;Samples;Min_cycle;Max_cycle;Signal;HPM_P1;HPM_P2
2023/01/22 00:00:18;;;;;;;17.80;6.80;;;2.50;99.90;;;;;;6067613;23;20022;-79
2023/01/22 00:02:47;;;;;;;15.50;7.45;;;2.50;99.90;;;;;;6066948;23;20022;-79
2023/01/22 00:05:15;;;;;;;17.85;7.70;;;2.50;99.90;;;;;;6097318;23;20041;-79
2023/01/22 00:07:42;;;;;;;16.80;7.30;;;2.50;99.90;;;;;;6048466;23;20068;-79
2023/01/22 00:10:10;;;;;;;18.88;7.70;;;2.50;99.90;;;;;;6071036;23;20390;-79
2023/01/22 00:12:38;;;;;;;16.38;6.75;;;2.50;99.90;;;;;;6070489;23;20026;-79
2023/01/22 00:15:07;;;;;;;16.75;7.75;;;3.20;99.90;;;;;;6073521;23;20124;-79
2023/01/22 00:17:34;;;;;;;16.45;7.70;;;2.50;99.90;;;;;;6070165;23;20014;-79
2023/01/22 00:20:01;;;;;;;14.38;6.57;;;2.50;99.90;;;;;;6093838;23;20370;-79
2023/01/22 00:22:37;;;;;;;16.35;6.72;;;2.50;99.90;;;;;;6071958;23;20018;-79
2023/01/22 00:25:06;;;;;;;14.43;6.05;;;2.50;99.90;;;;;;6064375;23;20031;-78
2023/01/22 00:27:33;;;;;;;15.18;6.60;;;2.50;99.90;;;;;;6092272;23;20066;-78
2023/01/22 00:30:00;;;;;;;15.30;6.90;;;2.50;99.90;;;;;;6064523;23;20029;-78
2023/01/22 00:32:27;;;;;;;15.38;6.75;;;2.50;99.90;;;;;;6065837;23;20029;-78
2023/01/22 00:34:58;;;;;;;13.27;6.30;;;2.50;99.90;;;;;;6124404;23;20097;-79
2023/01/22 00:37:25;;;;;;;17.35;8.43;;;2.50;99.90;;;;;;6099907;23;20018;-79
2023/01/22 00:39:53;;;;;;;17.60;7.43;;;2.50;99.90;;;;;;6127557;23;20082;-79
2023/01/22 00:42:26;;;;;;;15.65;7.78;;;2.50;99.90;;;;;;6102783;23;20019;-80
2023/01/22 00:44:53;;;;;;;13.82;5.93;;;2.30;99.90;;;;;;6082248;23;20082;-79
2023/01/22 00:47:21;;;;;;;13.73;6.22;;;2.50;99.90;;;;;;6120424;23;20022;-79
2023/01/22 00:49:48;;;;;;;17.52;6.47;;;2.50;99.90;;;;;;6093581;23;20028;-79
2023/01/22 00:52:16;;;;;;;14.77;4.95;;;2.00;99.90;;;;;;6101919;23;20033;-80
2023/01/22 00:54:44;;;;;;;14.13;5.22;;;2.50;99.90;;;;;;6113705;23;20033;-80
2023/01/22 00:57:15;;;;;;;12.63;5.80;;;2.50;99.90;;;;;;6103161;23;20509;-79
2023/01/22 00:59:42;;;;;;;16.88;6.22;;;1.80;99.90;;;;;;6124104;23;20014;-79
2023/01/22 01:02:09;;;;;;;17.60;6.53;;;2.50;99.90;;;;;;6123795;23;20030;-79
2023/01/22 01:04:37;;;;;;;12.32;4.95;;;2.50;99.90;;;;;;6104266;23;20029;-79
2023/01/22 01:07:14;;;;;;;15.30;6.68;;;2.50;99.90;;;;;;6119001;23;20019;-79
2023/01/22 01:09:44;;;;;;;17.15;6.40;;;2.50;99.90;;;;;;6091749;23;20018;-79
2023/01/22 01:12:13;;;;;;;16.65;6.15;;;2.50;99.90;;;;;;6108355;23;20018;-79
2023/01/22 01:14:40;;;;;;;14.55;6.20;;;2.30;99.90;;;;;;6113578;23;20033;-79
2023/01/22 01:17:08;;;;;;;16.67;6.20;;;2.80;99.90;;;;;;6116888;23;20046;-79
2023/01/22 02:14:41;;;;;;;12.98;5.25;;;2.50;99.90;;;;;;6077487;23;20051;-78
2023/01/22 02:17:13;;;;;;;14.05;5.80;;;2.40;99.90;;;;;;6060534;23;20049;-80
2023/01/22 02:19:42;;;;;;;14.07;5.90;;;2.40;99.90;;;;;;6080843;23;20029;-79
2023/01/22 02:22:18;;;;;;;13.35;5.78;;;2.40;99.90;;;;;;6034961;23;20101;-79
2023/01/22 02:24:45;;;;;;;11.00;4.43;;;2.40;99.90;;;;;;6084914;23;20011;-79
2023/01/22 02:27:12;;;;;;;18.27;6.35;;;2.30;99.90;;;;;;6033006;23;20046;-80
2023/01/22 02:29:40;;;;;;;13.80;6.18;;;2.30;99.90;;;;;;6053010;23;20117;-80
2023/01/22 02:32:09;;;;;;;13.70;5.43;;;2.40;99.90;;;;;;6048909;23;20026;-79
2023/01/22 02:34:37;;;;;;;16.00;5.97;;;2.30;99.90;;;;;;6051146;23;20037;-79
2023/01/22 02:37:05;;;;;;;13.43;5.05;;;2.30;99.90;;;;;;6022977;23;20014;-80
2023/01/22 02:39:32;;;;;;;14.23;5.50;;;2.30;99.90;;;;;;6083929;23;20076;-81
2023/01/22 02:42:04;;;;;;;12.52;5.25;;;2.30;99.90;;;;;;6109646;23;20012;-80
2023/01/22 02:44:31;;;;;;;12.05;5.20;;;2.30;99.90;;;;;;6081439;23;20023;-80
2023/01/22 02:46:59;;;;;;;12.85;5.45;;;3.40;99.90;;;;;;6077360;23;20042;-80
2023/01/22 02:49:28;;;;;;;15.43;5.80;;;2.30;99.90;;;;;;6087925;23;20026;-80
2023/01/22 02:51:56;;;;;;;15.10;6.53;;;2.30;99.90;;;;;;6106310;23;20041;-80
2023/01/22 02:54:24;;;;;;;15.05;5.65;;;2.20;99.90;;;;;;6081353;23;20038;-80
2023/01/22 02:56:51;;;;;;;14.38;6.43;;;2.30;99.90;;;;;;6105119;23;20046;-80
2023/01/22 02:59:19;;;;;;;17.55;6.28;;;2.20;99.90;;;;;;6081090;23;20026;-80
2023/01/22 03:01:46;;;;;;;13.70;6.53;;;2.20;99.90;;;;;;6109015;23;20018;-80
2023/01/22 03:04:15;;;;;;;16.75;6.95;;;1.70;99.90;;;;;;6060742;23;20014;-80
2023/01/22 03:06:44;;;;;;;17.60;6.53;;;2.40;99.90;;;;;;6100923;23;20042;-80
2023/01/22 03:09:15;;;;;;;11.30;4.45;;;2.40;99.90;;;;;;6077851;23;20037;-80
2023/01/22 03:11:44;;;;;;;15.07;6.43;;;2.20;99.90;;;;;;6077963;23;20022;-80
2023/01/22 03:23:03;;;;;;;15.40;6.13;;;2.10;99.90;;;;;;6042271;23;20027;-79
2023/01/22 03:25:30;;;;;;;13.68;5.50;;;2.10;99.90;;;;;;6039851;23;20515;-79
2023/01/22 03:28:07;;;;;;;11.50;4.85;;;2.20;99.90;;;;;;6016214;23;20170;-79
2023/01/22 03:30:38;;;;;;;13.05;5.45;;;1.70;99.90;;;;;;6016249;23;20023;-79
2023/01/22 03:33:06;;;;;;;15.63;5.88;;;2.10;99.90;;;;;;6018920;23;20027;-79
2023/01/22 03:35:37;;;;;;;14.65;6.40;;;2.20;99.90;;;;;;6048246;23;20003;-79
2023/01/22 03:38:14;;;;;;;11.93;5.53;;;2.10;99.90;;;;;;6019002;23;20019;-79
2023/01/22 03:40:44;;;;;;;14.88;5.75;;;2.10;99.90;;;;;;6056721;23;20407;-79
2023/01/22 03:43:15;;;;;;;12.45;5.18;;;2.10;99.90;;;;;;6105028;23;20011;-79
2023/01/22 03:45:43;;;;;;;12.98;5.50;;;2.10;99.90;;;;;;6077349;23;20022;-79
2023/01/22 03:48:14;;;;;;;14.13;5.75;;;2.10;99.90;;;;;;6082244;23;20026;-79
2023/01/22 03:50:41;;;;;;;14.43;5.95;;;2.00;99.90;;;;;;6082358;23;20026;-79
2023/01/22 03:53:13;;;;;;;14.63;5.70;;;2.10;99.90;;;;;;6078807;23;20019;-79
2023/01/22 03:55:41;;;;;;;11.70;5.17;;;2.10;99.90;;;;;;6080091;23;20049;-79
2023/01/22 03:58:09;;;;;;;13.80;5.32;;;2.10;99.90;;;;;;6095766;23;20348;-79
2023/01/22 04:00:36;;;;;;;13.57;5.22;;;2.10;99.90;;;;;;6102586;23;20023;-79
2023/01/22 04:03:08;;;;;;;14.32;5.93;;;2.10;99.90;;;;;;6079078;23;20038;-80
2023/01/22 04:05:39;;;;;;;15.73;6.20;;;2.20;99.90;;;;;;6080059;23;20485;-80
2023/01/22 04:08:06;;;;;;;15.57;6.70;;;2.10;99.90;;;;;;6072977;23;20062;-80
2023/01/22 04:10:38;;;;;;;14.20;6.20;;;2.20;99.90;;;;;;6063284;23;20033;-80
2023/01/22 04:13:06;;;;;;;12.88;5.63;;;2.20;99.90;;;;;;6106157;23;20419;-80
2023/01/22 04:15:35;;;;;;;11.90;5.03;;;2.20;99.90;;;;;;6091524;23;20017;-80
2023/01/22 04:18:13;;;;;;;15.43;6.75;;;2.10;99.90;;;;;;6091176;23;20030;-80
2023/01/22 04:21:45;;;;;;;16.65;6.80;;;2.60;99.90;;;;;;6038236;23;20026;-80
2023/01/22 04:24:13;;;;;;;16.40;6.47;;;2.40;99.90;;;;;;5977993;23;20109;-80
2023/01/22 04:26:41;;;;;;;13.52;5.30;;;2.20;99.90;;;;;;5991102;23;20042;-79
2023/01/22 04:29:11;;;;;;;14.05;5.13;;;2.20;99.90;;;;;;5991132;23;20027;-79
2023/01/22 04:31:39;;;;;;;11.48;4.68;;;2.60;99.90;;;;;;5989713;23;20032;-79
2023/01/22 04:34:07;;;;;;;11.68;4.63;;;2.40;99.90;;;;;;5988694;23;20098;-79
2023/01/22 04:36:41;;;;;;;14.10;5.28;;;2.20;99.90;;;;;;5992046;23;20028;-79
2023/01/22 04:39:14;;;;;;;10.98;4.43;;;2.30;99.90;;;;;;5991402;23;20051;-79
2023/01/22 04:41:41;;;;;;;13.82;5.30;;;2.30;99.90;;;;;;5963063;23;20455;-79
2023/01/22 04:44:09;;;;;;;15.90;5.43;;;2.20;99.90;;;;;;5958504;23;20015;-79
2023/01/22 04:46:36;;;;;;;12.23;5.40;;;2.30;99.90;;;;;;6016976;23;20037;-79
2023/01/22 04:49:04;;;;;;;13.20;5.53;;;2.30;99.90;;;;;;6070565;23;20027;-79
2023/01/22 04:51:31;;;;;;;12.10;4.93;;;2.30;99.90;;;;;;6050112;23;20043;-79
2023/01/22 04:53:59;;;;;;;13.95;4.93;;;2.30;99.90;;;;;;6044951;23;20055;-79
2023/01/22 04:56:26;;;;;;;10.50;4.78;;;2.30;99.90;;;;;;6049102;23;20029;-79
2023/01/22 04:58:54;;;;;;;10.13;4.45;;;2.30;99.90;;;;;;6043996;23;20019;-79
2023/01/22 05:01:21;;;;;;;12.52;5.80;;;2.20;99.90;;;;;;6040662;23;20470;-79
2023/01/22 05:03:49;;;;;;;9.40;4.30;;;2.30;99.90;;;;;;6076004;23;20049;-79
2023/01/22 05:06:17;;;;;;;12.30;4.05;;;2.30;99.90;;;;;;6104416;23;20022;-79
2023/01/22 05:08:45;;;;;;;13.32;4.65;;;2.30;99.90;;;;;;6100072;23;20026;-79
2023/01/22 05:11:14;;;;;;;11.80;4.20;;;2.30;99.90;;;;;;6097601;23;20454;-80
2023/01/22 05:13:48;;;;;;;12.10;4.53;;;2.30;99.90;;;;;;6077575;23;20154;-80
2023/01/22 05:16:16;;;;;;;12.07;4.78;;;2.30;99.90;;;;;;6073192;23;20358;-80
2023/01/22 05:18:44;;;;;;;11.60;4.63;;;2.40;99.90;;;;;;6095466;23;20025;-79
2023/01/22 05:21:11;;;;;;;10.27;4.20;;;2.40;99.90;;;;;;6121384;23;20112;-79
2023/01/22 05:23:39;;;;;;;11.25;4.65;;;2.40;99.90;;;;;;6096517;23;20439;-79
2023/01/22 05:26:06;;;;;;;10.95;4.57;;;3.30;99.90;;;;;;6095044;23;20451;-79
2023/01/22 05:28:39;;;;;;;;;;;2.40;99.90;;;;;;6073326;23;20026;-79
2023/01/22 05:31:11;;;;;;;11.38;4.85;;;2.40;99.90;;;;;;6069823;23;19931;-79
2023/01/22 05:33:48;;;;;;;14.93;6.70;;;2.40;99.90;;;;;;6093938;23;20026;-79
2023/01/22 05:36:15;;;;;;;12.25;5.95;;;2.40;99.90;;;;;;6072021;23;20093;-79
2023/01/22 05:38:45;;;;;;;15.52;7.10;;;2.40;99.90;;;;;;6071672;23;20017;-79
2023/01/22 05:41:13;;;;;;;15.68;6.93;;;2.40;99.90;;;;;;6091722;23;20018;-79
2023/01/22 05:43:41;;;;;;;14.40;6.35;;;2.40;99.90;;;;;;6094656;23;20065;-79
2023/01/22 05:46:13;;;;;;;13.68;5.72;;;2.40;99.90;;;;;;6097160;23;20368;-79
2023/01/22 05:49:10;;;;;;;17.15;6.78;;;1.50;99.90;;;;;;6103835;23;20112;-79
2023/01/22 05:51:37;;;;;;;14.57;5.65;;;2.80;99.90;;;;;;6103624;23;20022;-79
2023/01/22 05:54:05;;;;;;;15.95;7.00;;;2.30;99.90;;;;;;6102816;23;20021;-79
2023/01/22 05:56:40;;;;;;;24.80;8.35;;;2.50;99.90;;;;;;6123572;23;20065;-79
2023/01/22 05:59:07;;;;;;;25.45;9.80;;;2.50;99.90;;;;;;6098556;23;20022;-79
2023/01/22 06:01:35;;;;;;;18.92;8.25;;;2.50;99.90;;;;;;6098030;23;20445;-79
2023/01/22 06:04:03;;;;;;;17.35;6.70;;;2.50;99.90;;;;;;6074380;23;20018;-79
2023/01/22 06:06:30;;;;;;;18.50;7.75;;;2.40;99.90;;;;;;6098798;23;20057;-80
2023/01/22 06:08:58;;;;;;;17.33;7.28;;;2.50;99.90;;;;;;6096929;23;20017;-80
2023/01/22 06:11:31;;;;;;;16.20;7.07;;;2.30;99.90;;;;;;6094880;23;20513;-80
2023/01/22 06:13:58;;;;;;;16.40;6.70;;;2.50;99.90;;;;;;6096367;23;20470;-79
2023/01/22 06:16:26;;;;;;;15.85;6.97;;;2.50;99.90;;;;;;6073889;23;20024;-79
2023/01/22 06:19:10;;;;;;;15.73;6.53;;;2.50;99.90;;;;;;6121902;23;20349;-79
2023/01/22 06:21:52;;;;;;;15.87;5.97;;;2.50;99.90;;;;;;6100279;23;20026;-80
2023/01/22 06:24:25;;;;;;;11.55;5.40;;;2.50;99.90;;;;;;6121056;23;20029;-79
2023/01/22 06:26:52;;;;;;;14.63;6.47;;;2.60;99.90;;;;;;6122078;23;20088;-79
2023/01/22 06:29:24;;;;;;;18.20;7.10;;;2.50;99.90;;;;;;6075766;23;20887;-79
2023/01/22 06:31:51;;;;;;;16.00;6.50;;;2.50;99.90;;;;;;6095091;23;20370;-79
2023/01/22 06:34:20;;;;;;;19.35;7.20;;;2.50;99.90;;;;;;6120974;23;20514;-78
2023/01/22 06:36:47;;;;;;;22.08;8.25;;;2.60;99.90;;;;;;6120759;23;20060;-78
2023/01/22 06:39:14;;;;;;;19.55;7.35;;;2.50;99.90;;;;;;6097431;23;20025;-78
2023/01/22 06:41:47;;;;;;;17.42;6.57;;;2.50;99.90;;;;;;6095421;23;20029;-78
2023/01/22 06:44:17;;;;;;;18.52;7.95;;;2.50;99.90;;;;;;6121391;23;20018;-78
2023/01/22 06:46:45;;;;;;;17.58;8.15;;;2.60;99.90;;;;;;6095357;23;20054;-78
2023/01/22 06:49:33;;;;;;;15.90;7.88;;;2.60;99.90;;;;;;6050531;23;20082;-78
2023/01/22 06:52:00;;;;;;;20.13;9.38;;;2.60;99.90;;;;;;6006616;23;20110;-78
2023/01/22 06:54:27;;;;;;;23.98;8.85;;;2.70;99.90;;;;;;6007593;23;20027;-78
2023/01/22 06:56:54;;;;;;;20.17;8.63;;;2.70;99.90;;;;;;6028539;23;20023;-78
2023/01/22 06:59:23;;;;;;;19.23;8.65;;;2.70;99.90;;;;;;6030368;23;20019;-78
2023/01/22 07:01:50;;;;;;;19.88;9.43;;;2.70;99.90;;;;;;6053926;23;20023;-78
2023/01/22 07:04:17;;;;;;;18.30;9.27;;;2.70;99.90;;;;;;6006968;23;20024;-80
2023/01/22 07:06:44;;;;;;;19.55;8.30;;;2.70;99.90;;;;;;6031316;23;20155;-79
2023/01/22 07:09:12;;;;;;;19.15;8.55;;;2.70;99.90;;;;;;6031127;23;20549;-79
2023/01/22 07:11:39;;;;;;;24.85;10.15;;;2.70;99.90;;;;;;6054493;23;20359;-79
2023/01/22 07:14:06;;;;;;;18.70;9.10;;;2.80;99.90;;;;;;6030089;23;20063;-79
2023/01/22 07:16:35;;;;;;;24.42;9.25;;;2.80;99.90;;;;;;6006590;23;20027;-79
2023/01/22 07:19:02;;;;;;;25.05;10.85;;;2.80;99.90;;;;;;6052964;23;20030;-79
2023/01/22 07:21:29;;;;;;;15.57;7.60;;;2.80;99.90;;;;;;6081203;23;20018;-79
2023/01/22 07:23:56;;;;;;;17.00;7.22;;;2.90;99.90;;;;;;6093579;23;20018;-79
2023/01/22 07:26:23;;;;;;;13.80;4.95;;;2.90;99.90;;;;;;6093341;23;20383;-78
2023/01/22 07:28:51;;;;;;;14.75;5.72;;;2.90;99.90;;;;;;6094850;23;20022;-79
2023/01/22 07:31:18;;;;;;;13.23;5.13;;;2.90;99.90;;;;;;6099500;23;20274;-79
2023/01/22 07:33:45;;;;;;;12.75;4.70;;;2.90;99.90;;;;;;6118974;23;20018;-79
2023/01/22 07:36:13;;;;;;;13.15;5.32;;;2.90;99.90;;;;;;6095796;23;20034;-79
2023/01/22 07:39:05;;;;;;;13.90;5.00;;;2.50;99.90;;;;;;6073318;23;20065;-78
2023/01/22 07:41:32;;;;;;;14.50;4.90;;;3.00;99.90;;;;;;6065840;23;20023;-79
2023/01/22 07:43:59;;;;;;;11.45;4.85;;;3.00;99.90;;;;;;6064649;23;20025;-79
2023/01/22 07:46:27;;;;;;;12.57;4.72;;;3.00;99.90;;;;;;6043389;23;20030;-79
2023/01/22 07:48:54;;;;;;;12.93;5.63;;;3.00;99.90;;;;;;6065360;23;20381;-78
2023/01/22 07:51:24;;;;;;;11.90;4.88;;;3.00;99.90;;;;;;6068295;23;20358;-79
2023/01/22 07:53:52;;;;;;;9.65;4.68;;;3.00;99.90;;;;;;6069416;23;20526;-79
2023/01/22 07:56:19;;;;;;;13.43;4.93;;;3.10;99.90;;;;;;6062725;23;20081;-79
2023/01/22 07:58:47;;;;;;;13.05;4.68;;;3.10;99.90;;;;;;6069633;23;20109;-79
2023/01/22 08:01:14;;;;;;;14.73;6.40;;;3.20;99.90;;;;;;6067103;23;20025;-79
2023/01/22 08:03:42;;;;;;;11.88;4.32;;;3.50;99.90;;;;;;6066449;23;20348;-79
2023/01/22 08:06:11;;;;;;;11.50;4.68;;;3.30;99.90;;;;;;6064406;23;20050;-79
2023/01/22 08:08:38;;;;;;;12.05;5.82;;;3.40;99.90;;;;;;6069097;23;20470;-79
2023/01/22 08:11:06;;;;;;;12.82;4.88;;;3.40;99.90;;;;;;6072361;23;20022;-79
2023/01/22 08:13:33;;;;;;;9.80;3.97;;;3.30;99.90;;;;;;6068212;23;20034;-79
2023/01/22 08:16:00;;;;;;;15.25;6.65;;;3.40;99.90;;;;;;6076729;23;20046;-79
2023/01/22 08:18:28;;;;;;;13.65;5.72;;;3.40;99.90;;;;;;6123542;23;20026;-78
2023/01/22 08:20:58;;;;;;;13.95;5.75;;;3.40;99.90;;;;;;6099111;23;20041;-79
2023/01/22 08:23:26;;;;;;;9.07;4.35;;;3.50;99.90;;;;;;6099125;23;20018;-78
2023/01/22 08:26:07;;;;;;;14.27;6.03;;;3.50;99.90;;;;;;6084654;23;20032;-79
2023/01/22 08:28:37;;;;;;;11.60;4.45;;;2.50;99.90;;;;;;6081726;23;20021;-79
2023/01/22 08:31:06;;;;;;;10.68;4.95;;;3.70;99.90;;;;;;6079830;23;20045;-78
2023/01/22 08:33:48;;;;;;;10.30;4.70;;;3.80;99.90;;;;;;6125317;23;20395;-78
2023/01/22 08:36:22;;;;;;;11.95;4.50;;;3.80;99.90;;;;;;6075552;23;20045;-79
2023/01/22 08:38:50;;;;;;;14.35;5.25;;;3.70;99.90;;;;;;6136266;23;20020;-78
2023/01/22 08:41:19;;;;;;;11.73;4.78;;;3.80;99.90;;;;;;6140619;23;20341;-77
2023/01/22 08:43:48;;;;;;;15.27;5.35;;;3.70;99.90;;;;;;6201128;23;20056;-78
2023/01/22 08:46:18;;;;;;;5.70;2.42;;;3.80;99.90;;;;;;6161629;23;20017;-77
2023/01/22 08:48:49;;;;;;;10.82;5.30;;;3.70;99.90;;;;;;6161288;23;20085;-77
2023/01/22 08:51:22;;;;;;;13.73;6.20;;;3.70;99.90;;;;;;6126203;23;20021;-77
2023/01/22 08:53:50;;;;;;;12.15;5.47;;;3.80;99.90;;;;;;6166053;23;20048;-77
2023/01/22 08:56:17;;;;;;;12.80;5.38;;;3.70;99.90;;;;;;6131299;23;20025;-77
2023/01/22 08:58:51;;;;;;;10.82;4.40;;;3.60;99.90;;;;;;6156892;23;20044;-77
2023/01/22 09:01:19;;;;;;;15.57;5.35;;;3.00;99.90;;;;;;6179890;23;20072;-77
2023/01/22 09:03:48;;;;;;;10.30;3.67;;;3.70;99.90;;;;;;6189749;23;20458;-77
2023/01/22 09:06:17;;;;;;;9.07;4.03;;;3.70;99.90;;;;;;6160356;23;20028;-77
2023/01/22 09:08:47;;;;;;;10.27;4.78;;;3.70;99.90;;;;;;6160587;23;20117;-77
2023/01/22 09:11:17;;;;;;;11.88;5.78;;;3.80;99.90;;;;;;6134802;23;20104;-77
2023/01/22 09:13:47;;;;;;;10.75;4.93;;;3.80;99.90;;;;;;6156930;23;20060;-77
2023/01/22 09:16:15;;;;;;;12.45;5.05;;;3.80;99.90;;;;;;6180278;23;20453;-77
2023/01/22 09:18:42;;;;;;;12.50;4.97;;;3.80;99.90;;;;;;6164429;23;20021;-78
2023/01/22 09:21:10;;;;;;;9.57;4.55;;;3.80;99.90;;;;;;6164617;23;20017;-77
2023/01/22 09:23:39;;;;;;;13.45;5.68;;;3.80;99.90;;;;;;6155563;23;20027;-77
2023/01/22 09:26:07;;;;;;;12.25;4.78;;;4.00;99.90;;;;;;6158286;23;20067;-78
2023/01/22 09:28:35;;;;;;;12.95;5.18;;;3.80;99.90;;;;;;6154825;23;20083;-78
2023/01/22 09:31:03;;;;;;;12.60;5.97;;;3.80;99.90;;;;;;6163489;23;20072;-78
2023/01/22 09:33:33;;;;;;;10.23;4.63;;;4.90;99.90;;;;;;6135442;23;20017;-77
2023/01/22 09:36:12;;;;;;;12.35;5.32;;;3.70;99.90;;;;;;6197295;23;20032;-77
2023/01/22 09:38:41;;;;;;;13.23;5.30;;;3.70;99.90;;;;;;6159598;23;20040;-77
2023/01/22 09:41:33;;;;;;;14.00;6.43;;;3.50;99.90;;;;;;6183473;23;20051;-78
2023/01/22 09:44:19;;;;;;;13.25;5.60;;;3.70;99.90;;;;;;6181354;23;20023;-77
2023/01/22 09:46:58;;;;;;;12.70;5.60;;;3.70;99.90;;;;;;6208298;23;20012;-77
2023/01/22 09:49:36;;;;;;;14.48;6.65;;;3.90;99.90;;;;;;6182850;23;20314;-77
2023/01/22 09:52:05;;;;;;;16.98;6.93;;;3.70;99.90;;;;;;6177673;23;20448;-78
2023/01/22 09:54:59;;;;;;;19.05;7.82;;;3.70;99.90;;;;;;6157683;23;20043;31
2023/01/22 09:57:27;;;;;;;18.88;8.75;;;3.80;99.90;;;;;;6081422;23;20077;-78
2023/01/22 09:59:59;;;;;;;24.17;10.57;;;3.50;99.90;;;;;;6054761;23;20025;-78
2023/01/22 10:02:37;;;;;;;24.85;12.20;;;3.90;99.90;;;;;;6058937;23;20054;-78
2023/01/22 10:05:26;;;;;;;21.67;10.25;;;3.90;99.90;;;;;;6052225;23;20025;-78
2023/01/22 10:08:12;;;;;;;23.25;11.40;;;3.10;99.90;;;;;;6052505;23;20042;-78
2023/01/22 10:10:40;;;;;;;22.42;11.07;;;3.40;99.90;;;;;;6106550;23;20046;-78
2023/01/22 10:13:26;;;;;;;23.00;10.35;;;3.90;99.90;;;;;;6108852;23;20097;-78
2023/01/22 10:15:55;;;;;;;18.65;8.38;;;3.80;99.90;;;;;;6084570;23;20029;-78
2023/01/22 10:18:40;;;;;;;19.58;8.00;;;3.70;99.90;;;;;;6061009;23;20022;-78
2023/01/22 10:21:16;;;;;;;15.57;7.03;;;3.90;99.90;;;;;;6059773;23;20026;-78
2023/01/22 10:23:44;;;;;;;14.68;7.00;;;4.00;99.90;;;;;;6051161;23;20050;-78
2023/01/22 10:26:23;;;;;;;15.18;7.00;;;4.00;99.90;;;;;;6052381;23;20023;-78
2023/01/22 10:28:55;;;;;;;13.38;5.68;;;4.00;99.90;;;;;;6050672;23;20256;-78
2023/01/22 10:31:32;;;;;;;14.18;6.32;;;4.10;99.90;;;;;;6046624;23;20023;-78
2023/01/22 10:34:31;;;;;;;12.05;5.57;;;4.00;99.90;;;;;;6082011;23;20086;-78
2023/01/22 10:37:15;;;;;;;12.63;5.28;;;3.90;99.90;;;;;;6069967;23;20105;-77
2023/01/22 10:39:46;;;;;;;17.45;6.60;;;4.00;99.90;;;;;;6071718;23;20046;-78
2023/01/22 10:42:22;;;;;;;14.30;6.78;;;4.00;99.90;;;;;;6095194;23;20022;-77
2023/01/22 10:44:54;;;;;;;16.77;6.95;;;4.10;99.90;;;;;;6043266;23;20018;-77
2023/01/22 10:47:26;;;;;;;17.13;6.97;;;3.10;99.90;;;;;;6046253;23;20018;-79
2023/01/22 10:50:07;;;;;;;23.25;9.05;;;4.20;99.90;;;;;;6043970;23;20042;-78
2023/01/22 10:52:41;;;;;;;17.67;7.90;;;4.10;99.90;;;;;;6067036;23;20045;-78
2023/01/22 10:55:31;;;;;;;18.50;7.70;;;4.50;99.90;;;;;;6086968;23;20713;-78
2023/01/22 10:58:05;;;;;;;20.35;8.45;;;4.00;99.90;;;;;;6045211;23;20082;-78
2023/01/22 11:00:35;;;;;;;19.77;8.20;;;4.70;99.90;;;;;;6046742;23;20029;-78
2023/01/22 11:03:27;;;;;;;20.88;7.53;;;4.60;99.90;;;;;;6067826;23;20053;-77
2023/01/22 11:06:01;;;;;;;16.10;6.95;;;4.50;99.90;;;;;;6064092;23;20087;-78
2023/01/22 11:08:40;;;;;;;17.27;7.18;;;3.80;99.90;;;;;;6063185;23;20027;-78
2023/01/22 11:11:10;;;;;;;13.27;6.07;;;4.60;99.90;;;;;;6063804;23;20474;-78
2023/01/22 11:13:41;;;;;;;14.82;6.82;;;4.50;99.90;;;;;;6040549;23;20029;-78
2023/01/22 11:16:15;;;;;;;17.23;7.38;;;4.50;99.90;;;;;;6066792;23;20030;-78
2023/01/22 11:18:48;;;;;;;16.77;7.68;;;4.50;99.90;;;;;;6068770;23;20062;-78
2023/01/22 11:21:21;;;;;;;15.90;7.32;;;4.80;99.90;;;;;;6067731;23;20014;-78
2023/01/22 11:23:52;;;;;;;18.17;7.95;;;4.70;99.90;;;;;;6067646;23;20030;-79
2023/01/22 11:26:27;;;;;;;18.42;8.10;;;4.40;99.90;;;;;;6066716;23;20093;-77
2023/01/22 11:29:03;;;;;;;18.13;8.32;;;4.60;99.90;;;;;;6096348;23;20026;-77
2023/01/22 11:31:56;;;;;;;14.98;7.45;;;4.60;99.90;;;;;;6094309;23;20093;-77
2023/01/22 11:34:58;;;;;;;19.55;8.55;;;4.70;99.90;;;;;;6066479;23;20029;-77
2023/01/22 11:37:40;;;;;;;21.25;8.48;;;4.70;99.90;;;;;;6039881;23;20085;-78
2023/01/22 11:40:28;;;;;;;17.63;8.32;;;4.70;99.90;;;;;;6067942;23;20029;-77
2023/01/22 11:43:31;;;;;;;19.17;7.30;;;4.70;99.90;;;;;;6064499;23;20117;-77
2023/01/22 11:46:25;;;;;;;16.35;7.07;;;4.60;99.90;;;;;;6066032;23;20030;-77
2023/01/22 11:49:11;;;;;;;14.45;7.07;;;4.70;99.90;;;;;;6092002;23;20094;-77
2023/01/22 11:51:57;;;;;;;18.33;7.70;;;4.20;99.90;;;;;;6063801;23;20036;-77
2023/01/22 11:54:47;;;;;;;16.30;7.65;;;4.40;99.90;;;;;;6066429;23;20490;-77
2023/01/22 11:57:35;;;;;;;13.75;6.15;;;4.50;99.90;;;;;;6065176;23;20041;-78
2023/01/22 12:00:07;;;;;;;16.60;7.70;;;4.60;99.90;;;;;;6066095;23;20022;-77
2023/01/22 12:03:18;;;;;;;17.85;7.78;;;4.50;99.90;;;;;;6066482;23;20049;-77
2023/01/22 12:06:11;;;;;;;21.30;8.95;;;4.60;99.90;;;;;;6040781;23;20562;-77
2023/01/22 12:09:03;;;;;;;21.63;9.57;;;4.70;99.90;;;;;;6068951;23;20383;-78
2023/01/22 12:12:24;;;;;;;18.92;8.93;;;4.70;99.90;;;;;;6044034;23;20022;-78
2023/01/22 12:15:00;;;;;;;11.75;6.13;;;3.70;99.90;;;;;;6007989;23;20492;-78
2023/01/22 12:18:06;;;;;;;19.98;9.07;;;4.50;99.90;;;;;;6083998;23;20029;-78
2023/01/22 12:20:48;;;;;;;20.35;9.02;;;4.60;99.90;;;;;;6048834;23;20419;-78
2023/01/22 12:23:20;;;;;;;19.67;8.73;;;4.50;99.90;;;;;;6067380;23;20026;-78
2023/01/22 12:25:52;;;;;;;19.98;8.75;;;4.60;99.90;;;;;;6046021;23;20018;-78
2023/01/22 12:28:49;;;;;;;20.42;9.68;;;4.90;99.90;;;;;;6070404;23;20026;-78
2023/01/22 12:31:36;;;;;;;18.15;8.35;;;4.80;99.90;;;;;;6065292;23;20045;-78
2023/01/22 12:34:16;;;;;;;24.58;10.80;;;4.10;99.90;;;;;;6045459;23;20033;-78
2023/01/22 12:36:45;;;;;;;22.70;10.02;;;4.80;99.90;;;;;;6067025;23;20029;-78
2023/01/22 12:39:29;;;;;;;19.60;8.32;;;4.80;99.90;;;;;;6069374;23;20022;-78
2023/01/22 12:42:03;;;;;;;21.27;9.48;;;4.90;99.90;;;;;;6069269;23;20450;-78
2023/01/22 12:44:48;;;;;;;19.02;9.15;;;4.80;99.90;;;;;;6045434;23;20029;-78
2023/01/22 12:47:20;;;;;;;19.10;8.32;;;4.90;99.90;;;;;;6093968;23;20018;-78
2023/01/22 12:49:50;;;;;;;18.20;8.82;;;4.80;99.90;;;;;;6092596;23;20022;-78
2023/01/22 12:52:37;;;;;;;22.55;10.88;;;4.80;99.90;;;;;;6068678;23;20379;-78
2023/01/22 12:55:30;;;;;;;19.17;8.00;;;4.80;99.90;;;;;;6068962;23;20054;-78
2023/01/22 12:57:58;;;;;;;20.58;9.13;;;4.80;99.90;;;;;;6055057;23;20364;-78
2023/01/22 13:00:33;;;;;;;18.75;8.70;;;4.90;99.90;;;;;;6046112;23;20455;-78
2023/01/22 13:03:23;;;;;;;21.33;9.00;;;4.90;99.90;;;;;;6044909;23;20030;-78
2023/01/22 13:06:02;;;;;;;17.63;8.20;;;5.00;99.90;;;;;;6045922;23;20039;-78
2023/01/22 13:08:40;;;;;;;24.70;11.68;;;4.80;99.90;;;;;;6067152;23;20029;-77
2023/01/22 13:11:25;;;;;;;24.60;10.50;;;4.00;99.90;;;;;;6091220;23;20447;-78
2023/01/22 13:14:10;;;;;;;19.75;9.80;;;4.90;99.90;;;;;;6090100;23;20113;-78
2023/01/22 13:16:55;;;;;;;20.40;10.27;;;4.90;99.90;;;;;;6067705;23;20030;-78
2023/01/22 13:19:28;;;;;;;24.05;9.20;;;4.90;99.90;;;;;;6042952;23;20033;-78
2023/01/22 13:22:00;;;;;;;21.08;8.85;;;5.00;99.90;;;;;;6093938;23;20023;-78
2023/01/22 13:24:28;;;;;;;23.85;11.30;;;4.90;99.90;;;;;;6095294;23;20318;-78
2023/01/22 13:26:59;;;;;;;24.00;10.68;;;4.90;99.90;;;;;;6043263;23;20022;-78
2023/01/22 13:29:35;;;;;;;26.17;11.88;;;5.00;99.90;;;;;;6065358;23;20022;-78
2023/01/22 13:32:15;;;;;;;24.98;10.40;;;5.30;99.90;;;;;;6044903;23;20030;-78
2023/01/22 13:34:43;;;;;;;26.73;10.85;;;5.00;99.90;;;;;;6062566;23;20046;-78
2023/01/22 13:37:21;;;;;;;28.02;12.38;;;4.90;99.90;;;;;;6042309;23;20415;-77
2023/01/22 13:39:50;;;;;;;24.05;9.55;;;5.00;99.90;;;;;;6089187;23;20029;-77
2023/01/22 13:42:20;;;;;;;34.83;14.10;;;4.90;99.90;;;;;;6041691;23;20587;-77
2023/01/22 13:44:50;;;;;;;34.90;14.95;;;4.70;99.90;;;;;;6089594;23;20025;-77
2023/01/22 13:47:34;;;;;;;39.35;16.85;;;5.00;99.90;;;;;;6091125;23;20457;-77
2023/01/22 13:50:02;;;;;;;28.10;12.55;;;5.00;99.90;;;;;;6038761;23;20030;-78
2023/01/22 13:52:32;;;;;;;30.13;13.05;;;5.00;99.90;;;;;;6063127;23;20026;-78
2023/01/22 13:55:05;;;;;;;32.80;15.13;;;5.00;99.90;;;;;;6042040;23;20396;-78
2023/01/22 13:57:33;;;;;;;27.85;12.43;;;5.00;99.90;;;;;;6066287;23;20137;-78
2023/01/22 14:00:02;;;;;;;25.75;11.43;;;4.80;99.90;;;;;;6040696;23;20022;-77
2023/01/22 14:02:34;;;;;;;31.40;11.93;;;5.10;99.90;;;;;;6066986;23;20030;-77
2023/01/22 14:05:03;;;;;;;27.85;11.82;;;4.90;99.90;;;;;;6064943;23;20019;-77
2023/01/22 14:07:39;;;;;;;29.25;12.35;;;5.00;99.90;;;;;;6033711;23;20030;-77
2023/01/22 14:10:22;;;;;;;28.73;12.20;;;4.90;99.90;;;;;;6035513;23;20102;-77
2023/01/22 14:13:04;;;;;;;26.17;12.13;;;5.00;99.90;;;;;;6034880;23;20137;-77
2023/01/22 14:15:33;;;;;;;31.42;13.23;;;5.00;99.90;;;;;;6012010;23;20972;-77
2023/01/22 14:18:12;;;;;;;30.95;13.77;;;4.90;99.90;;;;;;6035914;23;20025;-77